sensor_id;sensor_type;location;lat;lon;timestamp;temperature;humidity
55016;DHT22;40919;43.236;21.590;2022-07-05T00:01:08;640.30;2432.00
55016;DHT22;40919;43.236;21.590;2022-07-05T00:03:34;640.00;2432.00
55016;DHT22;40919;43.236;21.590;2022-07-05T00:06:00;640.10;2432.00
55016;DHT22;40919;43.236;21.590;2022-07-05T00:08:26;640.30;2432.00
55016;DHT22;40919;43.236;21.590;2022-07-05T00:10:51;640.30;2432.00
55016;DHT22;40919;43.236;21.590;2022-07-05T00:13:17;640.10;2432.00
55016;DHT22;40919;43.236;21.590;2022-07-05T00:15:43;640.00;2432.00
55016;DHT22;40919;43.236;21.590;2022-07-05T00:18:09;640.10;2432.00
55016;DHT22;40919;43.236;21.590;2022-07-05T00:20:35;640.10;2432.00
55016;DHT22;40919;43.236;21.590;2022-07-05T00:23:01;640.10;2432.00
55016;DHT22;40919;43.236;21.590;2022-07-05T00:25:26;640.10;2432.00
55016;DHT22;40919;43.236;21.590;2022-07-05T00:27:52;615.30;2432.00
55016;DHT22;40919;43.236;21.590;2022-07-05T00:30:21;615.10;2432.00
55016;DHT22;40919;43.236;21.590;2022-07-05T00:32:47;615.10;2432.00
55016;DHT22;40919;43.236;21.590;2022-07-05T00:35:12;614.80;2432.00
55016;DHT22;40919;43.236;21.590;2022-07-05T00:37:38;615.00;2432.00
55016;DHT22;40919;43.236;21.590;2022-07-05T00:40:05;615.10;2432.00
55016;DHT22;40919;43.236;21.590;2022-07-05T00:42:33;615.30;2432.00
55016;DHT22;40919;43.236;21.590;2022-07-05T00:44:59;615.20;2432.00
55016;DHT22;40919;43.236;21.590;2022-07-05T00:47:25;615.20;2432.00
55016;DHT22;40919;43.236;21.590;2022-07-05T00:49:51;615.10;2432.00
55016;DHT22;40919;43.236;21.590;2022-07-05T00:52:17;615.10;2432.00
55016;DHT22;40919;43.236;21.590;2022-07-05T00:54:44;615.10;2432.00
55016;DHT22;40919;43.236;21.590;2022-07-05T00:57:10;615.20;2432.00
55016;DHT22;40919;43.236;21.590;2022-07-05T00:59:36;615.30;2432.00
55016;DHT22;40919;43.236;21.590;2022-07-05T01:02:02;640.00;2432.00
55016;DHT22;40919;43.236;21.590;2022-07-05T01:04:28;615.10;2432.00
55016;DHT22;40919;43.236;21.590;2022-07-05T01:06:55;615.00;2432.00
55016;DHT22;40919;43.236;21.590;2022-07-05T01:09:22;615.00;2432.00
55016;DHT22;40919;43.236;21.590;2022-07-05T01:11:49;615.00;2432.00
55016;DHT22;40919;43.236;21.590;2022-07-05T01:14:20;615.10;2432.00
55016;DHT22;40919;43.236;21.590;2022-07-05T01:16:49;615.10;2432.00
55016;DHT22;40919;43.236;21.590;2022-07-05T01:19:15;615.30;2432.00
55016;DHT22;40919;43.236;21.590;2022-07-05T01:21:44;640.50;2432.00
55016;DHT22;40919;43.236;21.590;2022-07-05T01:24:14;614.90;2432.00
55016;DHT22;40919;43.236;21.590;2022-07-05T01:26:40;615.00;2432.00
55016;DHT22;40919;43.236;21.590;2022-07-05T01:29:08;615.10;2432.00
55016;DHT22;40919;43.236;21.590;2022-07-05T01:31:38;614.80;2432.00
55016;DHT22;40919;43.236;21.590;2022-07-05T01:34:05;614.90;2432.00
55016;DHT22;40919;43.236;21.590;2022-07-05T01:36:31;614.50;2432.00
55016;DHT22;40919;43.236;21.590;2022-07-05T01:38:58;614.40;2432.00
55016;DHT22;40919;43.236;21.590;2022-07-05T01:41:24;614.60;2432.00
55016;DHT22;40919;43.236;21.590;2022-07-05T01:43:50;614.50;2432.00
55016;DHT22;40919;43.236;21.590;2022-07-05T01:46:17;614.70;2432.00
55016;DHT22;40919;43.236;21.590;2022-07-05T01:48:45;614.70;2432.00
55016;DHT22;40919;43.236;21.590;2022-07-05T01:51:29;614.60;2432.00
55016;DHT22;40919;43.236;21.590;2022-07-05T01:53:55;614.60;2432.00
55016;DHT22;40919;43.236;21.590;2022-07-05T01:56:21;614.60;2432.00
55016;DHT22;40919;43.236;21.590;2022-07-05T01:58:47;614.60;2432.00
55016;DHT22;40919;43.236;21.590;2022-07-05T02:01:14;614.50;2432.00
55016;DHT22;40919;43.236;21.590;2022-07-05T02:03:40;614.50;2432.00
55016;DHT22;40919;43.236;21.590;2022-07-05T02:06:06;614.50;2432.00
55016;DHT22;40919;43.236;21.590;2022-07-05T02:08:34;614.40;2432.00
55016;DHT22;40919;43.236;21.590;2022-07-05T02:11:00;614.50;2432.00
55016;DHT22;40919;43.236;21.590;2022-07-05T02:13:25;614.50;2432.00
55016;DHT22;40919;43.236;21.590;2022-07-05T02:15:51;589.70;2432.00
55016;DHT22;40919;43.236;21.590;2022-07-05T02:18:17;589.70;2432.00
55016;DHT22;40919;43.236;21.590;2022-07-05T02:20:43;614.40;2432.00
55016;DHT22;40919;43.236;21.590;2022-07-05T02:23:09;589.70;2432.00
55016;DHT22;40919;43.236;21.590;2022-07-05T02:25:35;614.40;2432.00
55016;DHT22;40919;43.236;21.590;2022-07-05T02:28:01;614.50;2432.00
55016;DHT22;40919;43.236;21.590;2022-07-05T02:30:27;614.60;2432.00
55016;DHT22;40919;43.236;21.590;2022-07-05T02:32:53;614.50;2432.00
55016;DHT22;40919;43.236;21.590;2022-07-05T02:35:19;614.40;2432.00
55016;DHT22;40919;43.236;21.590;2022-07-05T02:37:45;614.50;2432.00
55016;DHT22;40919;43.236;21.590;2022-07-05T02:40:12;614.50;2432.00
55016;DHT22;40919;43.236;21.590;2022-07-05T02:42:39;589.70;2432.00
55016;DHT22;40919;43.236;21.590;2022-07-05T02:45:06;589.50;2432.00
55016;DHT22;40919;43.236;21.590;2022-07-05T02:47:33;589.50;2432.00
55016;DHT22;40919;43.236;21.590;2022-07-05T02:50:07;589.40;2432.00
55016;DHT22;40919;43.236;21.590;2022-07-05T02:52:33;589.40;2432.00
55016;DHT22;40919;43.236;21.590;2022-07-05T02:55:00;589.60;2432.00
55016;DHT22;40919;43.236;21.590;2022-07-05T02:57:26;614.40;2432.00
55016;DHT22;40919;43.236;21.590;2022-07-05T02:59:55;614.40;2432.00
55016;DHT22;40919;43.236;21.590;2022-07-05T03:02:22;614.50;2432.00
55016;DHT22;40919;43.236;21.590;2022-07-05T03:04:48;589.70;2432.00
55016;DHT22;40919;43.236;21.590;2022-07-05T03:07:13;614.40;2432.00
55016;DHT22;40919;43.236;21.590;2022-07-05T03:09:39;589.70;2432.00
55016;DHT22;40919;43.236;21.590;2022-07-05T03:12:06;589.70;2432.00
55016;DHT22;40919;43.236;21.590;2022-07-05T03:14:32;589.70;2432.00
55016;DHT22;40919;43.236;21.590;2022-07-05T03:16:57;589.60;2432.00
55016;DHT22;40919;43.236;21.590;2022-07-05T03:19:23;589.60;2432.00
55016;DHT22;40919;43.236;21.590;2022-07-05T03:21:49;589.50;2432.00
55016;DHT22;40919;43.236;21.590;2022-07-05T03:24:15;589.20;2432.00
55016;DHT22;40919;43.236;21.590;2022-07-05T03:26:41;589.00;2432.00
55016;DHT22;40919;43.236;21.590;2022-07-05T03:29:07;589.10;2432.00
55016;DHT22;40919;43.236;21.590;2022-07-05T03:31:33;588.90;2432.00
55016;DHT22;40919;43.236;21.590;2022-07-05T03:36:25;589.20;2432.00
55016;DHT22;40919;43.236;21.590;2022-07-05T03:38:51;589.10;2432.00
55016;DHT22;40919;43.236;21.590;2022-07-05T03:41:17;589.10;2432.00
55016;DHT22;40919;43.236;21.590;2022-07-05T03:43:42;589.20;2432.00
55016;DHT22;40919;43.236;21.590;2022-07-05T03:46:08;589.10;2432.00
55016;DHT22;40919;43.236;21.590;2022-07-05T03:48:34;588.90;2432.00
55016;DHT22;40919;43.236;21.590;2022-07-05T03:51:00;588.80;2432.00
55016;DHT22;40919;43.236;21.590;2022-07-05T03:53:26;564.10;2432.00
55016;DHT22;40919;43.236;21.590;2022-07-05T03:55:51;564.10;2432.00
55016;DHT22;40919;43.236;21.590;2022-07-05T03:58:17;564.10;2432.00
55016;DHT22;40919;43.236;21.590;2022-07-05T04:00:43;564.10;2432.00
55016;DHT22;40919;43.236;21.590;2022-07-05T04:03:09;563.90;2432.00
55016;DHT22;40919;43.236;21.590;2022-07-05T04:05:34;564.10;2432.00
55016;DHT22;40919;43.236;21.590;2022-07-05T04:08:00;564.10;2432.00
55016;DHT22;40919;43.236;21.590;2022-07-05T04:10:26;564.10;2432.00
55016;DHT22;40919;43.236;21.590;2022-07-05T04:12:52;589.00;2432.00
55016;DHT22;40919;43.236;21.590;2022-07-05T04:15:18;589.10;2432.00
55016;DHT22;40919;43.236;21.590;2022-07-05T04:17:49;589.20;2432.00
55016;DHT22;40919;43.236;21.590;2022-07-05T04:20:15;589.20;2432.00
55016;DHT22;40919;43.236;21.590;2022-07-05T04:22:41;589.40;2432.00
55016;DHT22;40919;43.236;21.590;2022-07-05T04:25:07;589.40;2432.00
55016;DHT22;40919;43.236;21.590;2022-07-05T04:27:42;589.20;2432.00
55016;DHT22;40919;43.236;21.590;2022-07-05T04:30:08;589.00;2432.00
55016;DHT22;40919;43.236;21.590;2022-07-05T04:32:35;589.10;2432.00
55016;DHT22;40919;43.236;21.590;2022-07-05T04:35:00;589.20;2432.00
55016;DHT22;40919;43.236;21.590;2022-07-05T04:37:27;589.10;2432.00
55016;DHT22;40919;43.236;21.590;2022-07-05T04:39:53;589.10;2432.00
55016;DHT22;40919;43.236;21.590;2022-07-05T04:42:18;588.90;2432.00
55016;DHT22;40919;43.236;21.590;2022-07-05T04:44:44;589.00;2432.00
55016;DHT22;40919;43.236;21.590;2022-07-05T04:47:10;589.00;2432.00
55016;DHT22;40919;43.236;21.590;2022-07-05T04:49:36;589.20;2432.00
55016;DHT22;40919;43.236;21.590;2022-07-05T04:52:02;589.20;2432.00
55016;DHT22;40919;43.236;21.590;2022-07-05T04:54:27;589.20;2432.00
55016;DHT22;40919;43.236;21.590;2022-07-05T04:56:53;589.30;2432.00
55016;DHT22;40919;43.236;21.590;2022-07-05T04:59:19;589.50;2432.00
55016;DHT22;40919;43.236;21.590;2022-07-05T05:01:45;589.70;2432.00
55016;DHT22;40919;43.236;21.590;2022-07-05T05:04:11;589.70;2432.00
55016;DHT22;40919;43.236;21.590;2022-07-05T05:06:36;589.70;2432.00
55016;DHT22;40919;43.236;21.590;2022-07-05T05:09:02;589.70;2432.00
55016;DHT22;40919;43.236;21.590;2022-07-05T05:11:28;589.70;2432.00
55016;DHT22;40919;43.236;21.590;2022-07-05T05:13:54;589.70;2432.00
55016;DHT22;40919;43.236;21.590;2022-07-05T05:16:20;589.70;2432.00
55016;DHT22;40919;43.236;21.590;2022-07-05T05:18:46;614.40;2432.00
55016;DHT22;40919;43.236;21.590;2022-07-05T05:21:11;614.40;2432.00
55016;DHT22;40919;43.236;21.590;2022-07-05T05:23:37;614.50;2432.00
55016;DHT22;40919;43.236;21.590;2022-07-05T05:26:03;614.60;2432.00
55016;DHT22;40919;43.236;21.590;2022-07-05T05:28:29;614.80;2432.00
55016;DHT22;40919;43.236;21.590;2022-07-05T05:30:55;614.90;2432.00
55016;DHT22;40919;43.236;21.590;2022-07-05T05:35:47;615.20;2432.00
55016;DHT22;40919;43.236;21.590;2022-07-05T05:38:13;615.30;2432.00
55016;DHT22;40919;43.236;21.590;2022-07-05T05:40:38;615.30;2432.00
55016;DHT22;40919;43.236;21.590;2022-07-05T05:43:06;615.30;2432.00
55016;DHT22;40919;43.236;21.590;2022-07-05T05:45:32;640.10;2432.00
55016;DHT22;40919;43.236;21.590;2022-07-05T05:47:59;640.10;2432.00
55016;DHT22;40919;43.236;21.590;2022-07-05T05:50:36;640.20;2432.00
55016;DHT22;40919;43.236;21.590;2022-07-05T05:53:02;640.20;2432.00
55016;DHT22;40919;43.236;21.590;2022-07-05T05:55:29;640.40;2432.00
55016;DHT22;40919;43.236;21.590;2022-07-05T05:57:56;640.50;2432.00
55016;DHT22;40919;43.236;21.590;2022-07-05T06:00:24;640.50;2432.00
55016;DHT22;40919;43.236;21.590;2022-07-05T06:02:51;640.60;2432.00
55016;DHT22;40919;43.236;21.590;2022-07-05T06:05:17;640.70;2432.00
55016;DHT22;40919;43.236;21.590;2022-07-05T06:07:53;640.70;2432.00
55016;DHT22;40919;43.236;21.590;2022-07-05T06:10:24;640.90;2432.00
55016;DHT22;40919;43.236;21.590;2022-07-05T06:12:51;665.60;2432.00
55016;DHT22;40919;43.236;21.590;2022-07-05T06:15:17;665.70;2432.00
55016;DHT22;40919;43.236;21.590;2022-07-05T06:17:44;665.90;2432.00
55016;DHT22;40919;43.236;21.590;2022-07-05T06:20:14;665.90;2432.00
55016;DHT22;40919;43.236;21.590;2022-07-05T06:22:40;665.90;2432.00
55016;DHT22;40919;43.236;21.590;2022-07-05T06:25:07;666.00;2432.00
55016;DHT22;40919;43.236;21.590;2022-07-05T06:27:41;666.00;2432.00
55016;DHT22;40919;43.236;21.590;2022-07-05T06:30:08;666.00;2432.00
55016;DHT22;40919;43.236;21.590;2022-07-05T06:32:34;666.20;2432.00
55016;DHT22;40919;43.236;21.590;2022-07-05T06:35:00;666.30;2432.00
55016;DHT22;40919;43.236;21.590;2022-07-05T06:37:59;666.40;2432.00
55016;DHT22;40919;43.236;21.590;2022-07-05T06:40:35;691.20;2432.00
55016;DHT22;40919;43.236;21.590;2022-07-05T06:43:07;691.30;2432.00
55016;DHT22;40919;43.236;21.590;2022-07-05T06:45:33;691.50;2432.00
55016;DHT22;40919;43.236;21.590;2022-07-05T06:48:10;691.70;2432.00
55016;DHT22;40919;43.236;21.590;2022-07-05T06:50:39;691.90;2432.00
55016;DHT22;40919;43.236;21.590;2022-07-05T06:53:09;692.10;2432.00
55016;DHT22;40919;43.236;21.590;2022-07-05T06:55:35;716.80;2432.00
55016;DHT22;40919;43.236;21.590;2022-07-05T06:58:09;716.90;2432.00
55016;DHT22;40919;43.236;21.590;2022-07-05T07:00:38;717.10;2432.00
55016;DHT22;40919;43.236;21.590;2022-07-05T07:03:05;717.10;2432.00
55016;DHT22;40919;43.236;21.590;2022-07-05T07:05:31;717.20;2432.00
55016;DHT22;40919;43.236;21.590;2022-07-05T07:07:57;717.00;2432.00
55016;DHT22;40919;43.236;21.590;2022-07-05T07:10:42;717.30;2432.00
55016;DHT22;40919;43.236;21.590;2022-07-05T07:13:08;717.20;2432.00
55016;DHT22;40919;43.236;21.590;2022-07-05T07:15:37;717.50;2432.00
55016;DHT22;40919;43.236;21.590;2022-07-05T07:18:06;717.50;2432.00
55016;DHT22;40919;43.236;21.590;2022-07-05T07:20:32;717.50;2432.00
55016;DHT22;40919;43.236;21.590;2022-07-05T07:22:59;742.40;2432.00
55016;DHT22;40919;43.236;21.590;2022-07-05T07:25:25;742.90;2432.00
55016;DHT22;40919;43.236;21.590;2022-07-05T07:27:53;742.50;2432.00
55016;DHT22;40919;43.236;21.590;2022-07-05T07:30:24;742.40;2432.00
55016;DHT22;40919;43.236;21.590;2022-07-05T07:32:50;742.50;2432.00
55016;DHT22;40919;43.236;21.590;2022-07-05T07:35:17;717.70;2432.00
55016;DHT22;40919;43.236;21.590;2022-07-05T07:37:42;742.50;2432.00
55016;DHT22;40919;43.236;21.590;2022-07-05T07:40:09;742.60;2432.00
55016;DHT22;40919;43.236;21.590;2022-07-05T07:42:35;742.80;2432.00
55016;DHT22;40919;43.236;21.590;2022-07-05T07:47:33;743.10;2432.00
55016;DHT22;40919;43.236;21.590;2022-07-05T07:49:59;743.00;2432.00
55016;DHT22;40919;43.236;21.590;2022-07-05T07:52:26;742.80;2432.00
55016;DHT22;40919;43.236;21.590;2022-07-05T07:54:52;743.00;2432.00
55016;DHT22;40919;43.236;21.590;2022-07-05T07:57:18;743.30;2432.00
55016;DHT22;40919;43.236;21.590;2022-07-05T07:59:45;768.10;2432.00
55016;DHT22;40919;43.236;21.590;2022-07-05T08:02:11;768.20;2432.00
55016;DHT22;40919;43.236;21.590;2022-07-05T08:04:37;768.40;2432.00
55016;DHT22;40919;43.236;21.590;2022-07-05T08:07:03;768.40;2432.00
55016;DHT22;40919;43.236;21.590;2022-07-05T08:09:29;768.40;2432.00
55016;DHT22;40919;43.236;21.590;2022-07-05T08:11:56;768.40;2432.00
55016;DHT22;40919;43.236;21.590;2022-07-05T08:14:23;768.50;2432.00
55016;DHT22;40919;43.236;21.590;2022-07-05T08:16:50;768.80;2432.00
55016;DHT22;40919;43.236;21.590;2022-07-05T08:19:18;768.90;2432.00
55016;DHT22;40919;43.236;21.590;2022-07-05T08:26:58;794.10;2355.20
55016;DHT22;40919;43.236;21.590;2022-07-05T08:29:24;794.20;2355.20
55016;DHT22;40919;43.236;21.590;2022-07-05T08:31:51;794.40;2380.80
55016;DHT22;40919;43.236;21.590;2022-07-05T08:34:17;794.40;2304.00
55016;DHT22;40919;43.236;21.590;2022-07-05T08:36:47;794.40;2304.00
55016;DHT22;40919;43.236;21.590;2022-07-05T08:39:14;794.50;2278.40
55016;DHT22;40919;43.236;21.590;2022-07-05T08:41:41;819.20;2304.00
55016;DHT22;40919;43.236;21.590;2022-07-05T08:44:08;819.30;2329.60
55016;DHT22;40919;43.236;21.590;2022-07-05T08:46:39;819.50;2304.00
55016;DHT22;40919;43.236;21.590;2022-07-05T08:49:06;819.60;2278.40
55016;DHT22;40919;43.236;21.590;2022-07-05T08:51:37;794.50;2252.80
55016;DHT22;40919;43.236;21.590;2022-07-05T08:54:08;819.20;2278.40
55016;DHT22;40919;43.236;21.590;2022-07-05T08:56:35;819.50;2329.60
55016;DHT22;40919;43.236;21.590;2022-07-05T08:59:03;819.60;2329.60
55016;DHT22;40919;43.236;21.590;2022-07-05T09:01:28;819.30;2278.40
55016;DHT22;40919;43.236;21.590;2022-07-05T09:04:03;819.60;2278.40
55016;DHT22;40919;43.236;21.590;2022-07-05T09:06:32;819.90;2252.80
55016;DHT22;40919;43.236;21.590;2022-07-05T09:09:00;844.90;2278.40
55016;DHT22;40919;43.236;21.590;2022-07-05T09:11:36;819.80;2252.80
55016;DHT22;40919;43.236;21.590;2022-07-05T09:14:15;820.10;2252.80
55016;DHT22;40919;43.236;21.590;2022-07-05T09:16:43;820.00;2227.20
55016;DHT22;40919;43.236;21.590;2022-07-05T09:19:09;820.10;2227.20
55016;DHT22;40919;43.236;21.590;2022-07-05T09:21:35;820.00;2227.20
55016;DHT22;40919;43.236;21.590;2022-07-05T09:24:04;820.00;2201.60
55016;DHT22;40919;43.236;21.590;2022-07-05T09:26:39;844.90;2227.20
55016;DHT22;40919;43.236;21.590;2022-07-05T09:31:35;845.20;2150.40
55016;DHT22;40919;43.236;21.590;2022-07-05T09:44:47;870.40;2048.00
55016;DHT22;40919;43.236;21.590;2022-07-05T09:47:18;870.60;2073.60
55016;DHT22;40919;43.236;21.590;2022-07-05T09:49:47;870.80;2048.00
55016;DHT22;40919;43.236;21.590;2022-07-05T09:52:34;870.90;2048.00
55016;DHT22;40919;43.236;21.590;2022-07-05T09:55:14;871.20;2022.40
55016;DHT22;40919;43.236;21.590;2022-07-05T09:57:46;871.30;1996.80
55016;DHT22;40919;43.236;21.590;2022-07-05T10:00:21;896.10;2022.40
55016;DHT22;40919;43.236;21.590;2022-07-05T10:05:24;896.00;1971.20
55016;DHT22;40919;43.236;21.590;2022-07-05T10:07:57;896.30;1920.00
55016;DHT22;40919;43.236;21.590;2022-07-05T10:10:25;896.10;1894.40
55016;DHT22;40919;43.236;21.590;2022-07-05T10:12:53;871.30;1894.40
55016;DHT22;40919;43.236;21.590;2022-07-05T10:15:23;896.00;1868.80
55016;DHT22;40919;43.236;21.590;2022-07-05T10:18:11;871.30;1868.80
55016;DHT22;40919;43.236;21.590;2022-07-05T10:20:43;896.30;1868.80
55016;DHT22;40919;43.236;21.590;2022-07-05T10:23:14;896.60;1868.80
55016;DHT22;40919;43.236;21.590;2022-07-05T10:25:45;896.90;1868.80
55016;DHT22;40919;43.236;21.590;2022-07-05T10:28:18;921.80;1868.80
55016;DHT22;40919;43.236;21.590;2022-07-05T10:30:48;922.00;1894.40
55016;DHT22;40919;43.236;21.590;2022-07-05T10:33:20;922.00;1843.20
55016;DHT22;40919;43.236;21.590;2022-07-05T10:35:50;922.10;1843.20
55016;DHT22;40919;43.236;21.590;2022-07-05T10:38:46;921.60;1843.20
55016;DHT22;40919;43.236;21.590;2022-07-05T10:41:17;896.90;1817.60
55016;DHT22;40919;43.236;21.590;2022-07-05T10:43:44;921.80;1894.40
55016;DHT22;40919;43.236;21.590;2022-07-05T10:46:10;922.10;1843.20
55016;DHT22;40919;43.236;21.590;2022-07-05T10:48:35;921.80;1843.20
55016;DHT22;40919;43.236;21.590;2022-07-05T10:51:22;922.00;1843.20
55016;DHT22;40919;43.236;21.590;2022-07-05T10:56:21;922.40;1868.80
55016;DHT22;40919;43.236;21.590;2022-07-05T10:58:48;947.20;1792.00
55016;DHT22;40919;43.236;21.590;2022-07-05T11:01:33;922.30;1766.40
55016;DHT22;40919;43.236;21.590;2022-07-05T11:06:29;922.50;1817.60
55016;DHT22;40919;43.236;21.590;2022-07-05T11:11:35;947.70;1766.40
55016;DHT22;40919;43.236;21.590;2022-07-05T11:14:03;947.80;1715.20
55016;DHT22;40919;43.236;21.590;2022-07-05T11:16:30;947.70;1689.60
55016;DHT22;40919;43.236;21.590;2022-07-05T11:19:10;948.10;1740.80
55016;DHT22;40919;43.236;21.590;2022-07-05T11:21:40;948.00;1689.60
55016;DHT22;40919;43.236;21.590;2022-07-05T11:24:27;972.80;1689.60
55016;DHT22;40919;43.236;21.590;2022-07-05T11:26:57;972.90;1689.60
55016;DHT22;40919;43.236;21.590;2022-07-05T11:32:15;972.90;1715.20
55016;DHT22;40919;43.236;21.590;2022-07-05T11:34:43;973.10;1664.00
55016;DHT22;40919;43.236;21.590;2022-07-05T11:37:20;972.80;1612.80
55016;DHT22;40919;43.236;21.590;2022-07-05T11:45:10;948.10;1536.00
55016;DHT22;40919;43.236;21.590;2022-07-05T11:47:37;973.20;1587.20
55016;DHT22;40919;43.236;21.590;2022-07-05T11:50:03;973.20;1587.20
55016;DHT22;40919;43.236;21.590;2022-07-05T11:52:31;973.40;1587.20
55016;DHT22;40919;43.236;21.590;2022-07-05T11:54:59;998.40;1612.80
55016;DHT22;40919;43.236;21.590;2022-07-05T11:57:25;998.50;1587.20
55016;DHT22;40919;43.236;21.590;2022-07-05T11:59:51;973.10;1536.00
55016;DHT22;40919;43.236;21.590;2022-07-05T12:02:18;948.10;1510.40
55016;DHT22;40919;43.236;21.590;2022-07-05T12:04:48;947.60;1561.60
55016;DHT22;40919;43.236;21.590;2022-07-05T12:09:51;922.40;1536.00
55016;DHT22;40919;43.236;21.590;2022-07-05T12:12:36;922.30;1612.80
55016;DHT22;40919;43.236;21.590;2022-07-05T12:15:18;922.20;1638.40
55016;DHT22;40919;43.236;21.590;2022-07-05T12:17:51;922.00;1638.40
55016;DHT22;40919;43.236;21.590;2022-07-05T12:20:22;922.00;1638.40
55016;DHT22;40919;43.236;21.590;2022-07-05T12:22:48;921.80;1638.40
55016;DHT22;40919;43.236;21.590;2022-07-05T12:25:16;921.70;1638.40
55016;DHT22;40919;43.236;21.590;2022-07-05T12:27:44;921.60;1612.80
55016;DHT22;40919;43.236;21.590;2022-07-05T12:30:11;896.90;1612.80
55016;DHT22;40919;43.236;21.590;2022-07-05T12:32:53;896.80;1612.80
55016;DHT22;40919;43.236;21.590;2022-07-05T12:38:12;896.50;1664.00
55016;DHT22;40919;43.236;21.590;2022-07-05T12:40:41;896.30;1689.60
55016;DHT22;40919;43.236;21.590;2022-07-05T12:43:10;896.30;1689.60
55016;DHT22;40919;43.236;21.590;2022-07-05T12:45:58;896.20;1715.20
55016;DHT22;40919;43.236;21.590;2022-07-05T12:48:30;896.00;1689.60
55016;DHT22;40919;43.236;21.590;2022-07-05T12:50:57;871.30;1664.00
55016;DHT22;40919;43.236;21.590;2022-07-05T12:53:23;871.30;1689.60
55016;DHT22;40919;43.236;21.590;2022-07-05T12:56:09;871.30;1689.60
55016;DHT22;40919;43.236;21.590;2022-07-05T12:58:59;871.10;1689.60
55016;DHT22;40919;43.236;21.590;2022-07-05T13:01:27;871.10;1689.60
55016;DHT22;40919;43.236;21.590;2022-07-05T13:04:02;870.90;1715.20
55016;DHT22;40919;43.236;21.590;2022-07-05T13:06:54;870.90;1715.20
55016;DHT22;40919;43.236;21.590;2022-07-05T13:12:18;871.00;1715.20
55016;DHT22;40919;43.236;21.590;2022-07-05T13:14:52;871.00;1740.80
55016;DHT22;40919;43.236;21.590;2022-07-05T13:17:22;871.10;1740.80
55016;DHT22;40919;43.236;21.590;2022-07-05T13:19:50;871.30;1740.80
55016;DHT22;40919;43.236;21.590;2022-07-05T13:22:16;896.40;1715.20
55016;DHT22;40919;43.236;21.590;2022-07-05T13:24:43;896.50;1715.20
55016;DHT22;40919;43.236;21.590;2022-07-05T13:27:10;922.00;1740.80
55016;DHT22;40919;43.236;21.590;2022-07-05T13:29:36;922.00;1740.80
55016;DHT22;40919;43.236;21.590;2022-07-05T13:32:03;922.00;1664.00
55016;DHT22;40919;43.236;21.590;2022-07-05T13:34:29;922.30;1689.60
55016;DHT22;40919;43.236;21.590;2022-07-05T13:36:57;922.40;1664.00
55016;DHT22;40919;43.236;21.590;2022-07-05T13:39:23;922.50;1664.00
55016;DHT22;40919;43.236;21.590;2022-07-05T13:41:51;947.50;1715.20
55016;DHT22;40919;43.236;21.590;2022-07-05T13:44:18;947.30;1561.60
55016;DHT22;40919;43.236;21.590;2022-07-05T13:46:44;947.30;1587.20
55016;DHT22;40919;43.236;21.590;2022-07-05T13:49:10;947.30;1587.20
55016;DHT22;40919;43.236;21.590;2022-07-05T13:51:36;947.20;1587.20
55016;DHT22;40919;43.236;21.590;2022-07-05T13:54:02;922.20;1587.20
55016;DHT22;40919;43.236;21.590;2022-07-05T13:56:27;922.00;1612.80
55016;DHT22;40919;43.236;21.590;2022-07-05T13:58:55;921.80;1638.40
55016;DHT22;40919;43.236;21.590;2022-07-05T14:01:21;921.60;1638.40
55016;DHT22;40919;43.236;21.590;2022-07-05T14:03:52;921.70;1638.40
55016;DHT22;40919;43.236;21.590;2022-07-05T14:06:19;922.30;1638.40
55016;DHT22;40919;43.236;21.590;2022-07-05T14:08:45;922.40;1612.80
55016;DHT22;40919;43.236;21.590;2022-07-05T14:11:10;947.20;1612.80
55016;DHT22;40919;43.236;21.590;2022-07-05T14:13:38;947.20;1612.80
55016;DHT22;40919;43.236;21.590;2022-07-05T14:16:04;947.70;1638.40
55016;DHT22;40919;43.236;21.590;2022-07-05T14:18:30;947.70;1612.80
55016;DHT22;40919;43.236;21.590;2022-07-05T14:20:56;948.00;1638.40
55016;DHT22;40919;43.236;21.590;2022-07-05T14:23:22;948.00;1587.20
55016;DHT22;40919;43.236;21.590;2022-07-05T14:25:48;948.10;1587.20
55016;DHT22;40919;43.236;21.590;2022-07-05T14:28:14;948.10;1587.20
55016;DHT22;40919;43.236;21.590;2022-07-05T14:30:41;948.00;1664.00
55016;DHT22;40919;43.236;21.590;2022-07-05T14:33:09;947.90;1715.20
55016;DHT22;40919;43.236;21.590;2022-07-05T14:35:36;947.80;1689.60
55016;DHT22;40919;43.236;21.590;2022-07-05T14:38:02;947.70;1689.60
55016;DHT22;40919;43.236;21.590;2022-07-05T14:40:28;947.30;1689.60
55016;DHT22;40919;43.236;21.590;2022-07-05T14:42:56;947.40;1715.20
55016;DHT22;40919;43.236;21.590;2022-07-05T14:45:23;947.50;1715.20
55016;DHT22;40919;43.236;21.590;2022-07-05T14:47:49;947.40;1689.60
55016;DHT22;40919;43.236;21.590;2022-07-05T14:50:15;947.20;1715.20
55016;DHT22;40919;43.236;21.590;2022-07-05T14:52:42;947.30;1740.80
55016;DHT22;40919;43.236;21.590;2022-07-05T14:55:09;947.30;1740.80
55016;DHT22;40919;43.236;21.590;2022-07-05T14:57:38;922.30;1740.80
55016;DHT22;40919;43.236;21.590;2022-07-05T15:00:09;896.40;1766.40
55016;DHT22;40919;43.236;21.590;2022-07-05T15:02:38;896.90;1792.00
55016;DHT22;40919;43.236;21.590;2022-07-05T15:05:04;896.60;1792.00
55016;DHT22;40919;43.236;21.590;2022-07-05T15:07:31;896.20;1817.60
55016;DHT22;40919;43.236;21.590;2022-07-05T15:09:57;871.30;1843.20
55016;DHT22;40919;43.236;21.590;2022-07-05T15:12:23;871.10;1868.80
55016;DHT22;40919;43.236;21.590;2022-07-05T15:14:49;870.90;1868.80
55016;DHT22;40919;43.236;21.590;2022-07-05T15:17:14;870.80;1894.40
55016;DHT22;40919;43.236;21.590;2022-07-05T15:22:07;870.50;1920.00
55016;DHT22;40919;43.236;21.590;2022-07-05T15:24:33;845.70;1920.00
55016;DHT22;40919;43.236;21.590;2022-07-05T15:26:59;845.50;1920.00
55016;DHT22;40919;43.236;21.590;2022-07-05T15:29:26;845.40;1920.00
55016;DHT22;40919;43.236;21.590;2022-07-05T15:31:54;845.40;1920.00
55016;DHT22;40919;43.236;21.590;2022-07-05T15:34:20;845.60;1920.00
55016;DHT22;40919;43.236;21.590;2022-07-05T15:36:46;845.20;1945.60